Banderalo, Argentina
Current Conditions -  °F | °C
As of 9:00 PM on Thursday 27 Nov 2014 (Local Time) from SAOC Reporting Station
Clear Clear  
Wind Chill: 81°   Ceiling: Unl
Heat Index: 81°   Visibility: 6mi
Dew Point: 43°   Wind: 28mph
Humidity: 26%   Direction: 360°N
Pressure: 29.8"   Gusts: NA
Location:  35.01°S, 63.37°W
Report Text: SAOC 280000Z 36024KT CAVOK 27/06 Q1009
Loading
Personal Weather Stations






























Interactive Weather Map New forecast layout! Learn more

10-Day Weather Forecast

Advertisements
Track Severe Weather on mobile